Time;durP1;ratioP1;P1;durP2;ratioP2;P2;SDS_P1;SDS_P2;PMS_P1;PMS_P2;Temp;Humidity;BMP_temperature;BMP_pressure;BME280_temperature;BME280_humidity;BME280_pressure;Samples;Min_cycle;Max_cycle;Signal;HPM_P1;HPM_P2
2024/04/12 00:01:06;;;;;;;2.13;1.67;;;;;;;;;;6190612;26;20451;-66
2024/04/12 00:03:58;;;;;;;1.77;1.40;;;;;;;;;;6219487;26;20016;-65
2024/04/12 00:06:54;;;;;;;2.22;1.25;;;;;;;;;;6228937;26;20001;-66
2024/04/12 00:09:52;;;;;;;5.93;1.88;;;;;;;;;;6197123;26;20005;-65
2024/04/12 00:12:46;;;;;;;2.03;1.75;;;;;;;;;;6192268;26;20012;-65
2024/04/12 00:15:38;;;;;;;2.58;2.00;;;;;;;;;;6228040;26;20013;-65
2024/04/12 00:18:29;;;;;;;4.72;0.95;;;;;;;;;;6228695;26;20015;-65
2024/04/12 00:21:23;;;;;;;3.70;2.25;;;;;;;;;;6228777;26;20017;-65
2024/04/12 00:24:15;;;;;;;2.40;1.33;;;;;;;;;;6214272;26;20015;-65
2024/04/12 00:27:08;;;;;;;1.77;1.50;;;;;;;;;;6228984;26;20005;-66
2024/04/12 00:30:03;;;;;;;2.42;1.92;;;;;;;;;;6228367;26;20082;-65
2024/04/12 00:32:57;;;;;;;2.83;2.20;;;;;;;;;;6207574;26;20050;-65
2024/04/12 00:35:49;;;;;;;3.95;2.17;;;;;;;;;;6188759;26;20518;-66
2024/04/12 00:38:41;;;;;;;4.35;2.15;;;;;;;;;;6188280;26;20008;-65
2024/04/12 00:41:32;;;;;;;7.35;1.88;;;;;;;;;;6188457;26;20006;-65
2024/04/12 00:44:29;;;;;;;1.38;1.23;;;;;;;;;;6215038;26;20013;-65
2024/04/12 00:47:20;;;;;;;3.63;2.13;;;;;;;;;;6227144;26;20064;-66
2024/04/12 00:50:15;;;;;;;2.60;2.25;;;;;;;;;;6227920;26;20017;-65
2024/04/12 00:53:13;;;;;;;6.80;2.15;;;;;;;;;;6253455;26;20488;-65
2024/04/12 00:56:09;;;;;;;2.13;1.50;;;;;;;;;;6228489;26;20005;-65
2024/04/12 00:59:00;;;;;;;1.52;1.42;;;;;;;;;;6227880;26;20047;-65
2024/04/12 01:01:52;;;;;;;1.92;1.83;;;;;;;;;;6228171;26;20005;-65
2024/04/12 01:04:43;;;;;;;2.42;1.55;;;;;;;;;;6227159;26;20032;-65
2024/04/12 01:07:36;;;;;;;5.15;2.28;;;;;;;;;;6227933;26;20040;-65
2024/04/12 01:10:30;;;;;;;1.48;1.38;;;;;;;;;;6228172;26;20005;-65
2024/04/12 01:13:22;;;;;;;6.32;2.50;;;;;;;;;;6226367;26;20028;-65
2024/04/12 01:16:13;;;;;;;3.05;1.98;;;;;;;;;;6228156;26;20005;-66
2024/04/12 01:19:03;;;;;;;6.72;2.90;;;;;;;;;;6227665;26;20307;-66
2024/04/12 01:21:54;;;;;;;1.50;1.40;;;;;;;;;;6228288;26;20365;-65
2024/04/12 01:24:45;;;;;;;2.85;2.58;;;;;;;;;;6229007;26;20414;-65
2024/04/12 01:27:40;;;;;;;2.38;1.92;;;;;;;;;;6230573;26;20078;-65
2024/04/12 01:30:31;;;;;;;2.33;1.77;;;;;;;;;;6231494;26;20443;-65
2024/04/12 01:33:22;;;;;;;2.17;1.73;;;;;;;;;;6230812;26;20021;-65
2024/04/12 01:36:13;;;;;;;1.42;1.33;;;;;;;;;;6231468;26;20378;-65
2024/04/12 01:39:11;;;;;;;4.55;1.70;;;;;;;;;;6231101;26;20394;-66
2024/04/12 01:42:04;;;;;;;4.53;2.83;;;;;;;;;;6231521;26;20013;-66
2024/04/12 01:45:13;;;;;;;2.72;2.05;;;;;;;;;;6256865;26;20016;-65
2024/04/12 01:48:05;;;;;;;2.03;1.83;;;;;;;;;;6230593;26;20343;-65
2024/04/12 01:50:56;;;;;;;2.15;1.58;;;;;;;;;;6231525;26;20450;-65
2024/04/12 01:53:54;;;;;;;13.43;3.08;;;;;;;;;;6230607;26;20005;-65
2024/04/12 01:56:50;;;;;;;3.00;1.70;;;;;;;;;;6231172;26;20005;-65
2024/04/12 01:59:43;;;;;;;2.85;1.98;;;;;;;;;;6229858;26;20075;-65
2024/04/12 02:02:34;;;;;;;3.72;2.28;;;;;;;;;;6230646;26;20013;-65
2024/04/12 02:05:32;;;;;;;3.72;2.40;;;;;;;;;;6230316;26;20008;-65
2024/04/12 02:08:24;;;;;;;3.15;1.50;;;;;;;;;;6229110;26;20020;-65
2024/04/12 02:11:22;;;;;;;5.50;1.83;;;;;;;;;;6231049;26;20009;-65
2024/04/12 02:14:14;;;;;;;3.38;2.70;;;;;;;;;;6214800;26;20022;-66
2024/04/12 02:17:05;;;;;;;5.00;2.05;;;;;;;;;;6189956;26;20016;-66
2024/04/12 02:19:56;;;;;;;6.65;1.83;;;;;;;;;;6190247;26;20017;-65
2024/04/12 02:22:49;;;;;;;3.03;1.92;;;;;;;;;;6190482;26;20049;-65
2024/04/12 02:25:42;;;;;;;4.65;2.22;;;;;;;;;;6190247;26;20851;-65
2024/04/12 02:28:40;;;;;;;1.48;1.38;;;;;;;;;;6189654;26;20020;-65
2024/04/12 02:31:35;;;;;;;1.88;1.58;;;;;;;;;;6190701;26;20006;-65
2024/04/12 02:34:26;;;;;;;2.47;1.90;;;;;;;;;;6189999;26;20009;-66
2024/04/12 02:37:17;;;;;;;5.32;2.05;;;;;;;;;;6189070;26;20840;-65
2024/04/12 02:40:15;;;;;;;1.95;1.80;;;;;;;;;;6190029;26;20028;-65
2024/04/12 02:43:06;;;;;;;3.17;0.95;;;;;;;;;;6189340;26;20020;-66
2024/04/12 02:45:58;;;;;;;2.63;1.50;;;;;;;;;;6188393;26;20005;-65
2024/04/12 02:48:50;;;;;;;3.63;1.83;;;;;;;;;;6188333;26;20023;-65
2024/04/12 02:51:47;;;;;;;2.03;1.80;;;;;;;;;;6190193;26;20006;-65
2024/04/12 02:54:38;;;;;;;3.47;2.20;;;;;;;;;;6189724;26;20013;-65
2024/04/12 02:57:29;;;;;;;5.22;1.48;;;;;;;;;;6210138;26;20009;-65
2024/04/12 03:00:23;;;;;;;3.40;2.67;;;;;;;;;;6201840;26;20020;-65
2024/04/12 03:03:14;;;;;;;2.90;1.63;;;;;;;;;;6189632;26;20009;-64
2024/04/12 03:06:09;;;;;;;1.95;1.83;;;;;;;;;;6189668;26;20041;-66
2024/04/12 03:09:00;;;;;;;2.40;1.77;;;;;;;;;;6190568;26;20771;-65
2024/04/12 03:11:54;;;;;;;2.55;2.35;;;;;;;;;;6190191;26;20005;-65
2024/04/12 03:14:47;;;;;;;3.38;2.70;;;;;;;;;;6186751;26;20016;-65
2024/04/12 03:17:38;;;;;;;2.22;1.90;;;;;;;;;;6189316;26;20014;-65
2024/04/12 03:20:35;;;;;;;4.38;2.47;;;;;;;;;;6189738;26;20051;-65
2024/04/12 03:23:28;;;;;;;2.95;2.63;;;;;;;;;;6189761;26;20462;-65
2024/04/12 03:26:24;;;;;;;1.80;1.63;;;;;;;;;;6189448;26;20005;-65
2024/04/12 03:29:16;;;;;;;5.32;2.35;;;;;;;;;;6215420;26;20005;-65
2024/04/12 03:32:08;;;;;;;3.72;2.25;;;;;;;;;;6189749;26;20006;-65
2024/04/12 03:35:08;;;;;;;2.88;2.30;;;;;;;;;;6189968;26;20138;-65
2024/04/12 03:41:09;;;;;;;2.05;1.88;;;;;;;;;;6188881;26;20016;-65
2024/04/12 03:44:00;;;;;;;5.10;2.60;;;;;;;;;;6189242;26;20016;-65
2024/04/12 03:46:52;;;;;;;3.00;2.25;;;;;;;;;;6188781;26;20364;-65
2024/04/12 03:49:43;;;;;;;3.13;1.77;;;;;;;;;;6188998;26;20016;-65
2024/04/12 03:52:35;;;;;;;1.52;1.27;;;;;;;;;;6189060;26;20010;-65
2024/04/12 03:55:28;;;;;;;3.88;1.80;;;;;;;;;;6189429;26;20045;-65
2024/04/12 03:58:19;;;;;;;6.20;2.55;;;;;;;;;;6188084;26;20009;-65
2024/04/12 04:01:10;;;;;;;4.53;2.83;;;;;;;;;;6188889;26;20013;-65
2024/04/12 04:04:10;;;;;;;7.15;2.53;;;;;;;;;;6189112;26;20005;-66
2024/04/12 04:07:02;;;;;;;2.33;2.17;;;;;;;;;;6188477;26;20017;-66
2024/04/12 04:09:57;;;;;;;3.42;3.13;;;;;;;;;;6215510;26;20479;-65
2024/04/12 04:12:53;;;;;;;2.70;2.25;;;;;;;;;;6188143;26;20005;-65
2024/04/12 04:15:50;;;;;;;4.53;2.67;;;;;;;;;;6188976;26;20050;-65
2024/04/12 04:18:41;;;;;;;4.88;3.75;;;;;;;;;;6188011;26;20017;-65
2024/04/12 04:21:33;;;;;;;2.83;2.58;;;;;;;;;;6188669;26;20080;-65
2024/04/12 04:24:24;;;;;;;5.00;2.72;;;;;;;;;;6188622;26;20016;-65
2024/04/12 04:27:15;;;;;;;16.35;3.92;;;;;;;;;;6186531;26;20010;-66
2024/04/12 04:30:07;;;;;;;8.15;5.10;;;;;;;;;;6187868;26;20010;-66
2024/04/12 04:32:59;;;;;;;7.53;3.80;;;;;;;;;;6188895;26;20005;-65
2024/04/12 04:35:51;;;;;;;9.45;5.25;;;;;;;;;;6188968;26;20013;-65
2024/04/12 04:38:42;;;;;;;4.78;3.50;;;;;;;;;;6187760;26;20153;-63
2024/04/12 04:41:33;;;;;;;8.00;5.10;;;;;;;;;;6188493;26;20009;-63
2024/04/12 04:44:24;;;;;;;9.63;4.53;;;;;;;;;;6185598;26;20029;-63
2024/04/12 04:47:17;;;;;;;6.00;4.63;;;;;;;;;;6188015;26;20024;-63
2024/04/12 04:50:08;;;;;;;5.38;4.75;;;;;;;;;;6187968;26;20006;-63
2024/04/12 04:53:02;;;;;;;21.60;5.25;;;;;;;;;;6188560;26;20006;-63
2024/04/12 04:55:53;;;;;;;7.05;4.47;;;;;;;;;;6188407;26;20005;-63
2024/04/12 04:58:46;;;;;;;9.25;5.07;;;;;;;;;;6185679;26;20016;-63
2024/04/12 05:01:37;;;;;;;7.68;5.22;;;;;;;;;;6188124;26;20006;-63
2024/04/12 05:04:32;;;;;;;12.38;5.57;;;;;;;;;;6188035;26;20015;-63
2024/04/12 05:07:26;;;;;;;9.20;5.45;;;;;;;;;;6187830;26;20024;-63
2024/04/12 05:10:17;;;;;;;11.98;5.68;;;;;;;;;;6187846;26;20034;-63
2024/04/12 05:13:07;;;;;;;7.05;5.40;;;;;;;;;;6187070;26;20005;-66
2024/04/12 05:15:58;;;;;;;7.60;5.88;;;;;;;;;;6188421;26;20005;-65
2024/04/12 05:18:49;;;;;;;6.13;3.88;;;;;;;;;;6187171;26;20012;-66
2024/04/12 05:21:40;;;;;;;5.32;4.45;;;;;;;;;;6187900;26;20080;-66
2024/04/12 05:24:33;;;;;;;4.90;4.40;;;;;;;;;;6187655;26;20348;-66
2024/04/12 05:27:25;;;;;;;5.90;5.28;;;;;;;;;;6187470;26;20054;-65
2024/04/12 05:30:17;;;;;;;12.68;6.68;;;;;;;;;;6186559;26;20006;-66
2024/04/12 05:33:11;;;;;;;20.70;7.82;;;;;;;;;;6187152;26;20006;-66
2024/04/12 05:36:09;;;;;;;8.20;5.38;;;;;;;;;;6185812;26;20383;-66
2024/04/12 05:39:08;;;;;;;11.38;7.50;;;;;;;;;;6186696;26;20012;-65
2024/04/12 05:42:00;;;;;;;23.73;6.75;;;;;;;;;;6186251;26;20005;-64
2024/04/12 05:44:52;;;;;;;22.00;8.35;;;;;;;;;;6186766;26;20017;-64
2024/04/12 05:47:54;;;;;;;6.55;5.10;;;;;;;;;;6186904;26;20343;-64
2024/04/12 05:50:49;;;;;;;7.88;5.57;;;;;;;;;;6187239;26;20005;-64
2024/04/12 05:53:41;;;;;;;9.57;6.80;;;;;;;;;;6203161;26;20037;-63
2024/04/12 05:56:39;;;;;;;13.05;6.30;;;;;;;;;;6226986;26;20015;-66
2024/04/12 05:59:32;;;;;;;9.32;5.35;;;;;;;;;;6225736;26;20405;-66
2024/04/12 06:02:26;;;;;;;8.02;6.25;;;;;;;;;;6227118;26;20005;-66
2024/04/12 06:05:18;;;;;;;17.30;7.47;;;;;;;;;;6226909;26;20001;-66
2024/04/12 06:08:12;;;;;;;12.57;7.68;;;;;;;;;;6226256;26;20797;-66
2024/04/12 06:11:08;;;;;;;7.78;6.47;;;;;;;;;;6229723;26;20023;-66
2024/04/12 06:14:01;;;;;;;7.85;4.95;;;;;;;;;;6230557;26;20013;-66
2024/04/12 06:16:55;;;;;;;30.48;6.38;;;;;;;;;;6230327;26;20443;-66
2024/04/12 06:19:46;;;;;;;11.90;6.30;;;;;;;;;;6229937;26;20011;-66
2024/04/12 06:22:37;;;;;;;13.05;6.80;;;;;;;;;;6230343;26;20048;-66
2024/04/12 06:25:28;;;;;;;28.42;8.50;;;;;;;;;;6231008;26;20011;-65
2024/04/12 06:28:19;;;;;;;9.95;6.18;;;;;;;;;;6229381;26;20037;-65
2024/04/12 06:31:19;;;;;;;10.38;5.22;;;;;;;;;;6230514;26;20052;-65
2024/04/12 06:34:17;;;;;;;12.50;5.90;;;;;;;;;;6230279;26;21096;-65
2024/04/12 06:37:08;;;;;;;12.55;5.70;;;;;;;;;;6230303;26;20012;-65
2024/04/12 06:39:59;;;;;;;6.75;4.80;;;;;;;;;;6230368;26;20037;-65
2024/04/12 06:42:53;;;;;;;10.85;6.50;;;;;;;;;;6230110;26;20001;-65
2024/04/12 06:45:44;;;;;;;9.48;5.97;;;;;;;;;;6230664;26;20136;-65
2024/04/12 06:48:36;;;;;;;5.85;4.80;;;;;;;;;;6227743;26;20343;-65
2024/04/12 06:51:27;;;;;;;12.60;6.85;;;;;;;;;;6230422;26;20017;-65
2024/04/12 06:54:21;;;;;;;11.88;5.35;;;;;;;;;;6230140;26;20012;-65
2024/04/12 06:57:21;;;;;;;12.00;6.63;;;;;;;;;;6230517;26;20041;-66
2024/04/12 07:00:20;;;;;;;10.10;5.03;;;;;;;;;;6188392;26;20440;-66
2024/04/12 07:03:15;;;;;;;7.50;4.32;;;;;;;;;;6189920;26;20006;-65
2024/04/12 07:06:07;;;;;;;6.22;4.82;;;;;;;;;;6189943;26;20079;-66
2024/04/12 07:08:58;;;;;;;5.38;4.13;;;;;;;;;;6189509;26;20159;-66
2024/04/12 07:11:51;;;;;;;14.25;5.95;;;;;;;;;;6190354;26;20013;-66
2024/04/12 07:14:42;;;;;;;24.77;6.10;;;;;;;;;;6188738;26;20339;-66
2024/04/12 07:17:33;;;;;;;11.98;5.35;;;;;;;;;;6190088;26;20017;-66
2024/04/12 07:20:27;;;;;;;11.98;4.32;;;;;;;;;;6189441;26;20012;-65
2024/04/12 07:23:19;;;;;;;24.05;6.03;;;;;;;;;;6186139;26;20449;-66
2024/04/12 07:26:10;;;;;;;10.23;4.53;;;;;;;;;;6189212;26;20005;-66
2024/04/12 07:29:01;;;;;;;9.05;4.35;;;;;;;;;;6188071;26;20440;-66
2024/04/12 07:31:53;;;;;;;17.33;6.30;;;;;;;;;;6188291;26;20407;-66
2024/04/12 07:34:49;;;;;;;11.65;5.05;;;;;;;;;;6189376;26;20042;-66
2024/04/12 07:37:40;;;;;;;15.32;4.47;;;;;;;;;;6189268;26;20014;-66
2024/04/12 07:40:34;;;;;;;7.18;4.13;;;;;;;;;;6187520;26;20006;-66
2024/04/12 07:43:29;;;;;;;8.20;4.50;;;;;;;;;;6188593;26;20348;-66
2024/04/12 07:46:27;;;;;;;9.55;4.20;;;;;;;;;;6189674;26;20018;-66
2024/04/12 07:49:18;;;;;;;19.40;4.22;;;;;;;;;;6189105;26;20016;-67
2024/04/12 07:52:09;;;;;;;13.52;4.80;;;;;;;;;;6187921;26;20006;-66
2024/04/12 07:55:01;;;;;;;9.45;4.32;;;;;;;;;;6189222;26;20006;-67
2024/04/12 07:57:52;;;;;;;21.13;6.03;;;;;;;;;;6188937;26;20401;-67
2024/04/12 08:00:46;;;;;;;8.90;3.33;;;;;;;;;;6202889;26;20019;-66
2024/04/12 08:04:05;;;;;;;4.22;3.20;;;;;;;;;;6213559;26;20028;-66
2024/04/12 08:06:57;;;;;;;8.65;4.05;;;;;;;;;;6189408;26;20428;-66
2024/04/12 08:10:09;;;;;;;8.25;3.83;;;;;;;;;;6188323;26;20367;-67
2024/04/12 08:12:59;;;;;;;7.88;4.03;;;;;;;;;;6188285;26;20048;-66
2024/04/12 08:15:52;;;;;;;16.05;4.68;;;;;;;;;;6189348;26;20005;-67
2024/04/12 08:18:43;;;;;;;6.45;3.45;;;;;;;;;;6188807;26;20013;-67
2024/04/12 08:21:37;;;;;;;3.50;2.80;;;;;;;;;;6188513;26;20013;-67
2024/04/12 08:24:28;;;;;;;12.05;2.97;;;;;;;;;;6188794;26;20042;-67
2024/04/12 08:27:25;;;;;;;3.83;2.40;;;;;;;;;;6187411;26;20042;-67
2024/04/12 08:30:19;;;;;;;7.35;2.88;;;;;;;;;;6188053;26;20010;-67
2024/04/12 08:33:14;;;;;;;8.35;3.58;;;;;;;;;;6187059;26;20509;-67
2024/04/12 08:36:13;;;;;;;5.68;2.08;;;;;;;;;;6188987;26;20009;-67
2024/04/12 08:39:25;;;;;;;5.45;2.00;;;;;;;;;;6188414;26;20448;-67
2024/04/12 08:42:16;;;;;;;4.55;1.63;;;;;;;;;;6188389;26;20448;-67
2024/04/12 08:45:17;;;;;;;2.72;1.85;;;;;;;;;;6187518;26;20352;-67
2024/04/12 08:48:11;;;;;;;17.77;2.13;;;;;;;;;;6188384;26;20028;-67
2024/04/12 08:51:08;;;;;;;10.45;2.22;;;;;;;;;;6198324;26;20190;-67
2024/04/12 08:54:04;;;;;;;10.98;3.22;;;;;;;;;;6208584;26;20005;-67
2024/04/12 08:57:00;;;;;;;8.57;2.75;;;;;;;;;;6188659;26;20523;-66
2024/04/12 08:59:52;;;;;;;5.45;3.42;;;;;;;;;;6187701;26;20006;-67
2024/04/12 09:03:10;;;;;;;6.18;3.15;;;;;;;;;;6214099;26;20005;-67
2024/04/12 09:06:03;;;;;;;9.85;3.88;;;;;;;;;;6180581;26;20013;-67
2024/04/12 09:08:55;;;;;;;21.08;3.72;;;;;;;;;;6186751;26;20013;-67
2024/04/12 09:11:47;;;;;;;22.13;4.70;;;;;;;;;;6187943;26;20006;-67
2024/04/12 09:14:41;;;;;;;10.07;4.35;;;;;;;;;;6186932;26;20006;-67
2024/04/12 09:17:34;;;;;;;9.05;3.25;;;;;;;;;;6188300;26;20383;-67
2024/04/12 09:20:31;;;;;;;16.13;5.55;;;;;;;;;;6188184;26;20075;-67
2024/04/12 09:23:32;;;;;;;10.50;2.78;;;;;;;;;;6216169;26;20020;-67
2024/04/12 09:26:24;;;;;;;7.93;4.07;;;;;;;;;;6188101;26;20134;-67
2024/04/12 09:29:26;;;;;;;7.22;2.03;;;;;;;;;;6186745;26;20006;-66
2024/04/12 09:35:34;;;;;;;3.42;1.50;;;;;;;;;;6187984;26;20002;-67
2024/04/12 09:38:27;;;;;;;4.38;1.30;;;;;;;;;;6187608;26;20034;-67
2024/04/12 09:41:31;;;;;;;2.58;1.48;;;;;;;;;;6187477;26;20006;-67
2024/04/12 09:44:27;;;;;;;6.60;2.58;;;;;;;;;;6185544;26;20037;-67
2024/04/12 10:38:27;;;;;;;2.67;1.52;;;;;;;;;;6230766;26;20020;-67
2024/04/12 10:41:35;;;;;;;2.72;1.88;;;;;;;;;;6230375;26;20376;-67
2024/04/12 10:44:28;;;;;;;3.63;1.77;;;;;;;;;;6225535;26;20006;-67
2024/04/12 10:47:22;;;;;;;2.67;1.40;;;;;;;;;;6190626;26;20021;-67
2024/04/12 10:50:14;;;;;;;5.38;1.30;;;;;;;;;;6190423;26;20377;-67
2024/04/12 10:53:07;;;;;;;2.38;1.45;;;;;;;;;;6189684;26;20020;-67
2024/04/12 10:56:02;;;;;;;5.18;1.85;;;;;;;;;;6188388;26;20006;-67
2024/04/12 10:58:56;;;;;;;0.93;0.88;;;;;;;;;;6189809;26;20084;-67
2024/04/12 11:01:47;;;;;;;4.80;0.95;;;;;;;;;;6188132;26;20009;-67
2024/04/12 11:07:54;;;;;;;2.40;1.17;;;;;;;;;;6190305;26;20451;-67
2024/04/12 11:10:54;;;;;;;;;;;;;;;;;;6190999;26;20013;-67
2024/04/12 11:13:47;;;;;;;4.32;1.10;;;;;;;;;;6219292;26;19957;-67
2024/04/12 11:31:07;;;;;;;3.40;1.30;;;;;;;;;;6230236;26;20005;-67
2024/04/12 11:32:55;;;;;;;4.90;0.85;;;;;;;;;;6228238;26;20084;-67
2024/04/12 11:35:49;;;;;;;2.50;1.10;;;;;;;;;;6230028;26;20005;-67
2024/04/12 11:38:40;;;;;;;3.80;1.80;;;;;;;;;;6229691;26;20005;-67
2024/04/12 11:41:35;;;;;;;3.13;1.52;;;;;;;;;;6230295;26;20009;-67
2024/04/12 11:44:27;;;;;;;2.72;1.58;;;;;;;;;;6228452;26;20016;-67
2024/04/12 11:47:17;;;;;;;5.03;1.00;;;;;;;;;;6230130;26;20449;-67
2024/04/12 11:50:11;;;;;;;4.05;0.95;;;;;;;;;;6229389;26;20016;-67
2024/04/12 11:53:06;;;;;;;2.42;1.00;;;;;;;;;;6229683;26;20005;-67
2024/04/12 11:55:59;;;;;;;2.25;0.98;;;;;;;;;;6229882;26;20054;-67
2024/04/12 11:58:51;;;;;;;2.13;0.70;;;;;;;;;;6229177;26;20765;-67
2024/04/12 12:01:42;;;;;;;17.40;1.00;;;;;;;;;;6256807;26;20139;-67
2024/04/12 12:04:33;;;;;;;1.92;1.05;;;;;;;;;;6228772;26;20015;-67
2024/04/12 12:07:26;;;;;;;1.00;0.55;;;;;;;;;;6229540;26;20005;-67
2024/04/12 12:10:17;;;;;;;6.07;1.13;;;;;;;;;;6229326;26;20005;-67
2024/04/12 12:13:08;;;;;;;2.47;0.95;;;;;;;;;;6226509;26;20019;-68
2024/04/12 12:15:59;;;;;;;1.17;0.43;;;;;;;;;;6229450;26;20047;-67
2024/04/12 12:18:50;;;;;;;7.47;0.73;;;;;;;;;;6229051;26;20020;-67
2024/04/12 12:21:41;;;;;;;1.20;0.50;;;;;;;;;;6229040;26;20031;-67
2024/04/12 12:24:37;;;;;;;2.78;1.05;;;;;;;;;;6228389;26;20044;-67
2024/04/12 12:27:28;;;;;;;1.02;0.75;;;;;;;;;;6229077;26;20028;-67
2024/04/12 12:30:19;;;;;;;0.63;0.60;;;;;;;;;;6224796;26;20004;-67
2024/04/12 12:33:10;;;;;;;19.98;1.35;;;;;;;;;;6227074;26;20009;-67
2024/04/12 12:36:05;;;;;;;4.65;0.88;;;;;;;;;;6228598;26;20325;-67
2024/04/12 12:38:58;;;;;;;0.90;0.43;;;;;;;;;;6229088;26;20100;-67
2024/04/12 12:41:50;;;;;;;1.45;0.88;;;;;;;;;;6226897;26;20364;-67
2024/04/12 12:44:41;;;;;;;8.40;0.70;;;;;;;;;;6225314;26;20466;-67
2024/04/12 12:47:32;;;;;;;3.70;0.90;;;;;;;;;;6228851;26;20013;-67
2024/04/12 12:50:24;;;;;;;1.50;0.70;;;;;;;;;;6228060;26;20004;-67
2024/04/12 12:53:15;;;;;;;1.08;0.82;;;;;;;;;;6228322;26;20107;-67
2024/04/12 12:56:09;;;;;;;1.33;0.68;;;;;;;;;;6255185;26;20015;-67
2024/04/12 12:58:59;;;;;;;1.38;0.90;;;;;;;;;;6226231;26;20004;-67
2024/04/12 13:01:51;;;;;;;1.50;0.70;;;;;;;;;;6228827;26;20058;-67
2024/04/12 13:04:46;;;;;;;3.55;0.85;;;;;;;;;;6227456;26;20459;-67
2024/04/12 13:07:39;;;;;;;5.22;0.90;;;;;;;;;;6228236;26;20005;-67
2024/04/12 13:10:33;;;;;;;1.02;0.80;;;;;;;;;;6226488;26;20016;-67
2024/04/12 13:13:26;;;;;;;1.65;0.45;;;;;;;;;;6227325;26;20444;-67
2024/04/12 13:16:18;;;;;;;2.53;0.65;;;;;;;;;;6204563;26;20006;-67
2024/04/12 13:19:15;;;;;;;5.03;1.00;;;;;;;;;;6187086;26;20034;-67
2024/04/12 13:22:14;;;;;;;3.85;0.95;;;;;;;;;;6189298;26;20010;-67
2024/04/12 13:25:11;;;;;;;7.28;1.38;;;;;;;;;;6188058;26;20041;-67
2024/04/12 13:28:11;;;;;;;0.90;0.52;;;;;;;;;;6214738;26;20009;-67
2024/04/12 13:31:05;;;;;;;6.18;1.00;;;;;;;;;;6196825;26;20009;-67
2024/04/12 13:33:56;;;;;;;0.98;0.73;;;;;;;;;;6232179;26;20036;-67
2024/04/12 19:20:08;;;;;;;11.38;1.40;;;;;;;;;;6316824;26;20073;-66
2024/04/12 19:22:59;;;;;;;8.02;2.00;;;;;;;;;;6267728;26;20012;-67
2024/04/12 19:25:55;;;;;;;4.50;1.48;;;;;;;;;;6269969;26;20045;-67
2024/04/12 19:28:51;;;;;;;2.35;1.38;;;;;;;;;;6269322;26;20486;-67
2024/04/12 19:31:42;;;;;;;8.88;2.05;;;;;;;;;;6269040;26;20416;-67
2024/04/12 19:34:36;;;;;;;1.90;1.40;;;;;;;;;;6268989;26;20015;-66
2024/04/12 19:37:27;;;;;;;10.50;2.45;;;;;;;;;;6268713;26;20112;-65
2024/04/12 19:40:19;;;;;;;6.13;1.65;;;;;;;;;;6268874;26;20450;-67
2024/04/12 19:43:10;;;;;;;5.95;1.60;;;;;;;;;;6268707;26;20007;-67
2024/04/12 19:46:02;;;;;;;2.55;1.40;;;;;;;;;;6268733;26;20004;-67
2024/04/12 19:48:53;;;;;;;3.33;1.60;;;;;;;;;;6269438;26;20032;-65
2024/04/12 19:51:44;;;;;;;2.35;1.50;;;;;;;;;;6268320;26;20078;-66
2024/04/12 19:54:36;;;;;;;6.25;2.08;;;;;;;;;;6268265;26;20349;-66
2024/04/12 19:57:31;;;;;;;2.13;1.13;;;;;;;;;;6268484;26;20020;-66
2024/04/12 20:00:22;;;;;;;4.55;1.73;;;;;;;;;;6237727;26;20019;-66
2024/04/12 20:03:13;;;;;;;2.67;1.63;;;;;;;;;;6268456;26;20040;-66
2024/04/12 20:06:05;;;;;;;1.92;0.90;;;;;;;;;;6268446;26;20011;-67
2024/04/12 20:08:56;;;;;;;2.25;1.27;;;;;;;;;;6268866;26;20353;-66
2024/04/12 20:11:48;;;;;;;2.25;1.65;;;;;;;;;;6268469;26;20018;-67
2024/04/12 20:14:39;;;;;;;8.48;2.13;;;;;;;;;;6268175;26;20078;-66
2024/04/12 20:17:30;;;;;;;2.78;1.95;;;;;;;;;;6268487;26;20019;-66
2024/04/12 20:20:21;;;;;;;4.10;2.38;;;;;;;;;;6268080;26;20024;-66
2024/04/12 20:23:13;;;;;;;5.70;2.97;;;;;;;;;;6268091;26;20016;-66
2024/04/12 20:26:12;;;;;;;2.78;2.15;;;;;;;;;;6268008;26;20032;-66
2024/04/12 20:29:06;;;;;;;4.38;2.25;;;;;;;;;;6268194;26;20004;-66
2024/04/12 20:32:22;;;;;;;33.20;2.40;;;;;;;;;;6237749;26;20119;-66
2024/04/12 20:35:19;;;;;;;1.52;1.42;;;;;;;;;;6267414;26;20015;-66
2024/04/12 20:38:10;;;;;;;2.13;1.73;;;;;;;;;;6240092;26;20003;-65
2024/04/12 20:41:01;;;;;;;2.55;1.35;;;;;;;;;;6267620;26;20075;-66
2024/04/12 20:43:51;;;;;;;6.03;2.67;;;;;;;;;;6268265;26;20015;-65
2024/04/12 20:46:43;;;;;;;2.50;2.28;;;;;;;;;;6267779;26;20008;-66
2024/04/12 20:49:34;;;;;;;3.28;2.50;;;;;;;;;;6267797;26;20012;-65
2024/04/12 20:52:26;;;;;;;2.80;1.42;;;;;;;;;;6265179;26;20383;-66
2024/04/12 20:55:17;;;;;;;6.00;1.70;;;;;;;;;;6267291;26;20015;-66
2024/04/12 20:58:08;;;;;;;13.73;3.45;;;;;;;;;;6267453;26;20004;-65
2024/04/12 21:01:02;;;;;;;2.58;2.30;;;;;;;;;;6267882;26;20014;-65
2024/04/12 21:03:54;;;;;;;2.92;1.88;;;;;;;;;;6267883;26;20023;-65
2024/04/12 21:06:47;;;;;;;5.47;2.08;;;;;;;;;;6267394;26;20027;-65
2024/04/12 21:09:38;;;;;;;2.03;1.83;;;;;;;;;;6267285;26;20404;-65
2024/04/12 21:12:29;;;;;;;4.95;2.78;;;;;;;;;;6267350;26;20004;-65
2024/04/12 21:15:20;;;;;;;4.05;2.55;;;;;;;;;;6236919;26;20358;-65
2024/04/12 21:18:11;;;;;;;2.17;1.98;;;;;;;;;;6236772;26;20011;-66
2024/04/12 21:21:06;;;;;;;5.13;2.42;;;;;;;;;;6267043;26;20011;-66
2024/04/12 21:23:59;;;;;;;3.22;1.73;;;;;;;;;;6267733;26;20004;-65
2024/04/12 21:26:50;;;;;;;3.13;2.45;;;;;;;;;;6237031;26;20012;-65
2024/04/12 21:29:41;;;;;;;2.72;2.17;;;;;;;;;;6266811;26;20040;-65
2024/04/12 21:32:34;;;;;;;4.28;2.85;;;;;;;;;;6266871;26;20015;-65
2024/04/12 21:35:25;;;;;;;2.28;2.05;;;;;;;;;;6267020;26;20032;-65
2024/04/12 21:38:16;;;;;;;5.45;3.13;;;;;;;;;;6266659;26;20036;-66
2024/04/12 21:41:14;;;;;;;7.70;2.92;;;;;;;;;;6268074;26;20016;-65
2024/04/12 21:44:08;;;;;;;2.20;1.95;;;;;;;;;;6270625;26;20010;-66
2024/04/12 21:46:59;;;;;;;7.63;2.58;;;;;;;;;;6263588;26;20000;-65
2024/04/12 21:49:50;;;;;;;3.85;2.80;;;;;;;;;;6267224;26;20082;-65
2024/04/12 21:52:41;;;;;;;3.67;3.22;;;;;;;;;;6271171;26;20252;-65
2024/04/12 21:55:34;;;;;;;4.20;2.63;;;;;;;;;;6271813;26;20040;-65
2024/04/12 21:58:28;;;;;;;4.30;3.00;;;;;;;;;;6270813;26;20036;-65
2024/04/12 22:01:19;;;;;;;9.30;3.35;;;;;;;;;;6271308;26;20009;-65
2024/04/12 22:04:10;;;;;;;7.10;3.67;;;;;;;;;;6264187;26;20023;-65
2024/04/12 22:07:02;;;;;;;3.53;2.60;;;;;;;;;;6270210;26;20005;-65
2024/04/12 22:09:53;;;;;;;9.85;3.30;;;;;;;;;;6271448;26;20004;-65
2024/04/12 22:12:44;;;;;;;4.03;2.55;;;;;;;;;;6271438;26;20049;-65
2024/04/12 22:15:34;;;;;;;5.00;3.42;;;;;;;;;;6271245;26;20004;-65
2024/04/12 22:18:28;;;;;;;5.35;3.13;;;;;;;;;;6270935;26;20651;-65
2024/04/12 22:21:21;;;;;;;4.00;3.60;;;;;;;;;;6270397;26;20082;-65
2024/04/12 22:24:12;;;;;;;7.35;4.45;;;;;;;;;;6270740;26;20461;-65
2024/04/12 22:27:05;;;;;;;3.58;2.83;;;;;;;;;;6287380;26;20058;-65
2024/04/12 22:29:56;;;;;;;6.75;3.70;;;;;;;;;;6266008;26;20015;-65
2024/04/12 22:32:47;;;;;;;4.90;3.03;;;;;;;;;;6271044;26;20093;-65
2024/04/12 22:35:38;;;;;;;4.38;3.00;;;;;;;;;;6270436;26;20016;-65
2024/04/12 22:38:30;;;;;;;4.47;2.42;;;;;;;;;;6305927;26;20032;-65
2024/04/12 22:41:21;;;;;;;6.20;3.33;;;;;;;;;;6307911;26;20027;-65
2024/04/12 22:44:12;;;;;;;4.00;3.08;;;;;;;;;;6310782;26;20003;-65
2024/04/12 22:47:03;;;;;;;11.63;2.90;;;;;;;;;;6279884;26;20382;-66
2024/04/12 22:49:54;;;;;;;3.15;2.33;;;;;;;;;;6311610;26;20038;-65
2024/04/12 22:52:45;;;;;;;2.50;2.22;;;;;;;;;;6309519;26;20004;-65
2024/04/12 22:55:36;;;;;;;5.38;3.30;;;;;;;;;;6311051;26;20014;-65
2024/04/12 22:58:27;;;;;;;4.88;3.00;;;;;;;;;;6311272;26;20003;-65
2024/04/12 23:01:18;;;;;;;8.77;2.17;;;;;;;;;;6310827;26;20010;-65
2024/04/12 23:04:09;;;;;;;13.05;3.78;;;;;;;;;;6310755;26;20003;-65
2024/04/12 23:07:02;;;;;;;4.13;2.80;;;;;;;;;;6278977;26;20012;-65
2024/04/12 23:09:53;;;;;;;7.90;3.00;;;;;;;;;;6280509;26;19999;-65
2024/04/12 23:12:44;;;;;;;4.25;3.60;;;;;;;;;;6310513;26;20014;-65
2024/04/12 23:15:37;;;;;;;8.80;3.15;;;;;;;;;;6310658;26;20006;-65
2024/04/12 23:18:29;;;;;;;7.13;2.90;;;;;;;;;;6310565;26;20140;-65
2024/04/12 23:21:20;;;;;;;6.63;3.15;;;;;;;;;;6310348;26;20004;-65
2024/04/12 23:24:11;;;;;;;3.58;3.13;;;;;;;;;;6310106;26;20003;-65
2024/04/12 23:27:03;;;;;;;8.88;2.47;;;;;;;;;;6310575;26;20007;-66
2024/04/12 23:29:54;;;;;;;5.30;2.78;;;;;;;;;;6311127;26;20003;-65
2024/04/12 23:32:45;;;;;;;4.68;3.58;;;;;;;;;;6310248;26;20014;-65
2024/04/12 23:35:35;;;;;;;6.93;3.33;;;;;;;;;;6310288;26;20023;-65
2024/04/12 23:38:26;;;;;;;2.85;2.42;;;;;;;;;;6310451;26;20015;-65
2024/04/12 23:41:17;;;;;;;7.70;3.28;;;;;;;;;;6310150;26;20444;-65
2024/04/12 23:44:08;;;;;;;3.22;2.58;;;;;;;;;;6309713;26;20016;-65
2024/04/12 23:46:59;;;;;;;5.93;3.72;;;;;;;;;;6279685;26;20010;-65
2024/04/12 23:49:50;;;;;;;7.32;4.35;;;;;;;;;;6279147;26;20074;-65
2024/04/12 23:52:43;;;;;;;4.63;3.50;;;;;;;;;;6310038;26;20017;-65
2024/04/12 23:55:34;;;;;;;4.07;3.15;;;;;;;;;;6310143;26;20088;-65
2024/04/12 23:58:27;;;;;;;4.72;2.85;;;;;;;;;;6309943;26;20003;-65
